sensor_id;sensor_type;location;lat;lon;timestamp;P1;durP1;ratioP1;P2;durP2;ratioP2
9310;SDS011;4694;52.464;13.480;2022-07-29T00:00:31;6.05;;;1.75;;
9310;SDS011;4694;52.464;13.480;2022-07-29T00:02:58;4.60;;;1.73;;
9310;SDS011;4694;52.464;13.480;2022-07-29T00:05:24;5.35;;;1.85;;
9310;SDS011;4694;52.464;13.480;2022-07-29T00:07:52;2.65;;;1.75;;
9310;SDS011;4694;52.464;13.480;2022-07-29T00:10:19;4.65;;;1.85;;
9310;SDS011;4694;52.464;13.480;2022-07-29T00:12:46;4.38;;;1.90;;
9310;SDS011;4694;52.464;13.480;2022-07-29T00:15:13;5.55;;;1.48;;
9310;SDS011;4694;52.464;13.480;2022-07-29T00:17:40;3.97;;;2.40;;
9310;SDS011;4694;52.464;13.480;2022-07-29T00:20:07;2.45;;;1.58;;
9310;SDS011;4694;52.464;13.480;2022-07-29T00:22:36;8.88;;;2.05;;
9310;SDS011;4694;52.464;13.480;2022-07-29T00:25:05;9.40;;;2.25;;
9310;SDS011;4694;52.464;13.480;2022-07-29T00:27:33;9.07;;;2.65;;
9310;SDS011;4694;52.464;13.480;2022-07-29T00:30:00;4.10;;;1.90;;
9310;SDS011;4694;52.464;13.480;2022-07-29T00:32:27;6.82;;;2.20;;
9310;SDS011;4694;52.464;13.480;2022-07-29T00:34:54;5.10;;;3.08;;
9310;SDS011;4694;52.464;13.480;2022-07-29T00:37:38;4.75;;;2.58;;
9310;SDS011;4694;52.464;13.480;2022-07-29T00:40:06;6.18;;;3.20;;
9310;SDS011;4694;52.464;13.480;2022-07-29T00:42:41;6.68;;;2.67;;
9310;SDS011;4694;52.464;13.480;2022-07-29T00:45:08;7.45;;;2.78;;
9310;SDS011;4694;52.464;13.480;2022-07-29T00:47:35;3.88;;;2.10;;
9310;SDS011;4694;52.464;13.480;2022-07-29T00:50:03;5.22;;;2.58;;
9310;SDS011;4694;52.464;13.480;2022-07-29T00:52:30;5.70;;;2.78;;
9310;SDS011;4694;52.464;13.480;2022-07-29T00:54:58;7.25;;;2.92;;
9310;SDS011;4694;52.464;13.480;2022-07-29T00:57:26;4.45;;;2.47;;
9310;SDS011;4694;52.464;13.480;2022-07-29T00:59:52;6.90;;;3.03;;
9310;SDS011;4694;52.464;13.480;2022-07-29T01:02:19;4.88;;;3.10;;
9310;SDS011;4694;52.464;13.480;2022-07-29T01:04:45;6.32;;;2.70;;
9310;SDS011;4694;52.464;13.480;2022-07-29T01:07:12;5.35;;;3.03;;
9310;SDS011;4694;52.464;13.480;2022-07-29T01:09:39;4.60;;;2.70;;
9310;SDS011;4694;52.464;13.480;2022-07-29T01:12:08;5.45;;;2.65;;
9310;SDS011;4694;52.464;13.480;2022-07-29T01:14:37;7.68;;;2.75;;
9310;SDS011;4694;52.464;13.480;2022-07-29T01:17:06;7.38;;;2.53;;
9310;SDS011;4694;52.464;13.480;2022-07-29T01:19:44;3.35;;;3.03;;
9310;SDS011;4694;52.464;13.480;2022-07-29T01:22:18;7.78;;;2.65;;
9310;SDS011;4694;52.464;13.480;2022-07-29T01:25:19;9.45;;;4.43;;
9310;SDS011;4694;52.464;13.480;2022-07-29T01:28:01;5.20;;;3.08;;
9310;SDS011;4694;52.464;13.480;2022-07-29T01:30:44;5.85;;;3.10;;
9310;SDS011;4694;52.464;13.480;2022-07-29T01:33:15;5.63;;;2.88;;
9310;SDS011;4694;52.464;13.480;2022-07-29T01:35:57;6.35;;;3.20;;
9310;SDS011;4694;52.464;13.480;2022-07-29T01:38:27;10.07;;;4.65;;
9310;SDS011;4694;52.464;13.480;2022-07-29T01:40:58;9.45;;;3.13;;
9310;SDS011;4694;52.464;13.480;2022-07-29T01:43:31;5.13;;;2.92;;
9310;SDS011;4694;52.464;13.480;2022-07-29T01:46:04;4.80;;;3.20;;
9310;SDS011;4694;52.464;13.480;2022-07-29T01:48:36;5.65;;;3.38;;
9310;SDS011;4694;52.464;13.480;2022-07-29T01:51:07;3.28;;;3.03;;
9310;SDS011;4694;52.464;13.480;2022-07-29T01:53:42;6.38;;;3.53;;
9310;SDS011;4694;52.464;13.480;2022-07-29T01:56:13;5.95;;;2.92;;
9310;SDS011;4694;52.464;13.480;2022-07-29T01:58:42;5.97;;;3.05;;
9310;SDS011;4694;52.464;13.480;2022-07-29T02:01:12;5.30;;;2.40;;
9310;SDS011;4694;52.464;13.480;2022-07-29T02:03:41;5.43;;;3.05;;
9310;SDS011;4694;52.464;13.480;2022-07-29T02:06:11;5.18;;;2.80;;
9310;SDS011;4694;52.464;13.480;2022-07-29T02:08:41;5.18;;;3.25;;
9310;SDS011;4694;52.464;13.480;2022-07-29T02:11:08;4.50;;;3.28;;
9310;SDS011;4694;52.464;13.480;2022-07-29T02:13:35;5.43;;;3.05;;
9310;SDS011;4694;52.464;13.480;2022-07-29T02:16:03;9.68;;;2.65;;
9310;SDS011;4694;52.464;13.480;2022-07-29T02:18:34;8.40;;;3.38;;
9310;SDS011;4694;52.464;13.480;2022-07-29T02:21:03;4.95;;;2.50;;
9310;SDS011;4694;52.464;13.480;2022-07-29T02:23:31;5.75;;;2.80;;
9310;SDS011;4694;52.464;13.480;2022-07-29T02:26:00;4.53;;;3.15;;
9310;SDS011;4694;52.464;13.480;2022-07-29T02:28:29;7.03;;;2.80;;
9310;SDS011;4694;52.464;13.480;2022-07-29T02:30:58;6.45;;;3.53;;
9310;SDS011;4694;52.464;13.480;2022-07-29T02:33:28;8.20;;;2.75;;
9310;SDS011;4694;52.464;13.480;2022-07-29T02:35:58;6.13;;;3.67;;
9310;SDS011;4694;52.464;13.480;2022-07-29T02:38:27;4.95;;;2.80;;
9310;SDS011;4694;52.464;13.480;2022-07-29T02:41:13;4.47;;;2.35;;
9310;SDS011;4694;52.464;13.480;2022-07-29T02:43:43;8.32;;;2.30;;
9310;SDS011;4694;52.464;13.480;2022-07-29T02:46:13;6.80;;;2.92;;
9310;SDS011;4694;52.464;13.480;2022-07-29T02:48:44;4.75;;;3.72;;
9310;SDS011;4694;52.464;13.480;2022-07-29T02:51:19;8.00;;;3.38;;
9310;SDS011;4694;52.464;13.480;2022-07-29T02:53:51;4.10;;;3.40;;
9310;SDS011;4694;52.464;13.480;2022-07-29T02:56:22;5.13;;;2.75;;
9310;SDS011;4694;52.464;13.480;2022-07-29T02:58:52;3.65;;;2.72;;
9310;SDS011;4694;52.464;13.480;2022-07-29T03:03:50;4.03;;;2.65;;
9310;SDS011;4694;52.464;13.480;2022-07-29T03:06:20;5.38;;;2.65;;
9310;SDS011;4694;52.464;13.480;2022-07-29T03:08:50;7.13;;;2.90;;
9310;SDS011;4694;52.464;13.480;2022-07-29T03:11:17;6.13;;;3.65;;
9310;SDS011;4694;52.464;13.480;2022-07-29T03:13:44;7.32;;;2.78;;
9310;SDS011;4694;52.464;13.480;2022-07-29T03:16:11;5.97;;;2.83;;
9310;SDS011;4694;52.464;13.480;2022-07-29T03:18:38;8.27;;;2.92;;
9310;SDS011;4694;52.464;13.480;2022-07-29T03:21:06;7.43;;;2.95;;
9310;SDS011;4694;52.464;13.480;2022-07-29T03:23:35;5.40;;;2.42;;
9310;SDS011;4694;52.464;13.480;2022-07-29T03:26:01;5.20;;;2.50;;
9310;SDS011;4694;52.464;13.480;2022-07-29T03:28:28;7.57;;;3.33;;
9310;SDS011;4694;52.464;13.480;2022-07-29T03:30:55;8.15;;;2.67;;
9310;SDS011;4694;52.464;13.480;2022-07-29T03:33:22;5.97;;;2.92;;
9310;SDS011;4694;52.464;13.480;2022-07-29T03:35:49;8.35;;;4.18;;
9310;SDS011;4694;52.464;13.480;2022-07-29T03:38:15;7.55;;;3.55;;
9310;SDS011;4694;52.464;13.480;2022-07-29T03:40:44;5.28;;;2.85;;
9310;SDS011;4694;52.464;13.480;2022-07-29T03:43:15;8.70;;;2.72;;
9310;SDS011;4694;52.464;13.480;2022-07-29T03:45:45;5.55;;;2.53;;
9310;SDS011;4694;52.464;13.480;2022-07-29T03:48:16;8.15;;;2.53;;
9310;SDS011;4694;52.464;13.480;2022-07-29T03:50:46;5.43;;;2.90;;
9310;SDS011;4694;52.464;13.480;2022-07-29T03:53:13;5.47;;;2.90;;
9310;SDS011;4694;52.464;13.480;2022-07-29T03:55:41;6.85;;;2.63;;
9310;SDS011;4694;52.464;13.480;2022-07-29T03:58:12;7.47;;;3.08;;
9310;SDS011;4694;52.464;13.480;2022-07-29T04:00:39;3.58;;;2.60;;
9310;SDS011;4694;52.464;13.480;2022-07-29T04:03:07;7.68;;;2.70;;
9310;SDS011;4694;52.464;13.480;2022-07-29T04:05:35;6.55;;;2.15;;
9310;SDS011;4694;52.464;13.480;2022-07-29T04:08:02;5.28;;;2.78;;
9310;SDS011;4694;52.464;13.480;2022-07-29T04:10:28;5.28;;;2.83;;
9310;SDS011;4694;52.464;13.480;2022-07-29T04:12:55;6.93;;;2.50;;
9310;SDS011;4694;52.464;13.480;2022-07-29T04:15:23;4.75;;;2.13;;
9310;SDS011;4694;52.464;13.480;2022-07-29T04:17:50;9.48;;;3.10;;
9310;SDS011;4694;52.464;13.480;2022-07-29T04:20:16;12.20;;;3.60;;
9310;SDS011;4694;52.464;13.480;2022-07-29T04:22:43;8.48;;;3.20;;
9310;SDS011;4694;52.464;13.480;2022-07-29T04:25:10;6.03;;;2.55;;
9310;SDS011;4694;52.464;13.480;2022-07-29T04:27:36;5.28;;;2.72;;
9310;SDS011;4694;52.464;13.480;2022-07-29T04:30:24;4.85;;;2.78;;
9310;SDS011;4694;52.464;13.480;2022-07-29T04:32:51;4.45;;;2.67;;
9310;SDS011;4694;52.464;13.480;2022-07-29T04:35:18;6.55;;;2.50;;
9310;SDS011;4694;52.464;13.480;2022-07-29T04:37:45;8.30;;;2.95;;
9310;SDS011;4694;52.464;13.480;2022-07-29T04:40:11;3.65;;;2.83;;
9310;SDS011;4694;52.464;13.480;2022-07-29T04:42:38;14.25;;;6.82;;
9310;SDS011;4694;52.464;13.480;2022-07-29T04:45:05;3.95;;;3.13;;
9310;SDS011;4694;52.464;13.480;2022-07-29T04:47:34;4.82;;;2.50;;
9310;SDS011;4694;52.464;13.480;2022-07-29T04:50:00;5.20;;;2.40;;
9310;SDS011;4694;52.464;13.480;2022-07-29T04:52:28;5.13;;;2.03;;
9310;SDS011;4694;52.464;13.480;2022-07-29T04:54:54;5.43;;;2.92;;
9310;SDS011;4694;52.464;13.480;2022-07-29T04:57:21;6.95;;;3.90;;
9310;SDS011;4694;52.464;13.480;2022-07-29T04:59:47;6.00;;;2.42;;
9310;SDS011;4694;52.464;13.480;2022-07-29T05:02:14;4.95;;;2.45;;
9310;SDS011;4694;52.464;13.480;2022-07-29T05:04:42;4.63;;;3.03;;
9310;SDS011;4694;52.464;13.480;2022-07-29T05:07:09;10.30;;;3.40;;
9310;SDS011;4694;52.464;13.480;2022-07-29T05:09:35;4.03;;;2.35;;
9310;SDS011;4694;52.464;13.480;2022-07-29T05:12:02;16.65;;;3.53;;
9310;SDS011;4694;52.464;13.480;2022-07-29T05:14:29;6.65;;;2.63;;
9310;SDS011;4694;52.464;13.480;2022-07-29T05:16:56;4.45;;;2.63;;
9310;SDS011;4694;52.464;13.480;2022-07-29T05:19:22;5.70;;;2.33;;
9310;SDS011;4694;52.464;13.480;2022-07-29T05:21:50;8.88;;;2.22;;
9310;SDS011;4694;52.464;13.480;2022-07-29T05:24:17;6.07;;;3.22;;
9310;SDS011;4694;52.464;13.480;2022-07-29T05:26:43;7.32;;;2.53;;
9310;SDS011;4694;52.464;13.480;2022-07-29T05:29:10;4.35;;;3.40;;
9310;SDS011;4694;52.464;13.480;2022-07-29T05:31:37;5.80;;;3.20;;
9310;SDS011;4694;52.464;13.480;2022-07-29T05:34:03;11.30;;;4.13;;
9310;SDS011;4694;52.464;13.480;2022-07-29T05:36:30;5.85;;;3.15;;
9310;SDS011;4694;52.464;13.480;2022-07-29T05:38:58;6.97;;;3.05;;
9310;SDS011;4694;52.464;13.480;2022-07-29T05:41:24;5.97;;;2.95;;
9310;SDS011;4694;52.464;13.480;2022-07-29T05:43:51;9.80;;;4.07;;
9310;SDS011;4694;52.464;13.480;2022-07-29T05:46:18;5.40;;;2.90;;
9310;SDS011;4694;52.464;13.480;2022-07-29T05:48:45;7.28;;;2.90;;
9310;SDS011;4694;52.464;13.480;2022-07-29T05:51:11;5.85;;;2.65;;
9310;SDS011;4694;52.464;13.480;2022-07-29T05:53:38;5.00;;;2.67;;
9310;SDS011;4694;52.464;13.480;2022-07-29T05:56:06;5.78;;;2.90;;
9310;SDS011;4694;52.464;13.480;2022-07-29T05:58:33;7.93;;;2.95;;
9310;SDS011;4694;52.464;13.480;2022-07-29T06:00:59;5.05;;;2.50;;
9310;SDS011;4694;52.464;13.480;2022-07-29T06:03:26;4.45;;;3.08;;
9310;SDS011;4694;52.464;13.480;2022-07-29T06:05:53;4.35;;;2.33;;
9310;SDS011;4694;52.464;13.480;2022-07-29T06:08:20;5.03;;;2.65;;
9310;SDS011;4694;52.464;13.480;2022-07-29T06:10:46;5.43;;;2.50;;
9310;SDS011;4694;52.464;13.480;2022-07-29T06:13:15;7.72;;;2.72;;
9310;SDS011;4694;52.464;13.480;2022-07-29T06:15:41;5.60;;;2.70;;
9310;SDS011;4694;52.464;13.480;2022-07-29T06:18:08;6.43;;;2.80;;
9310;SDS011;4694;52.464;13.480;2022-07-29T06:20:35;5.05;;;2.95;;
9310;SDS011;4694;52.464;13.480;2022-07-29T06:23:02;8.10;;;2.47;;
9310;SDS011;4694;52.464;13.480;2022-07-29T06:25:29;4.88;;;2.22;;
9310;SDS011;4694;52.464;13.480;2022-07-29T06:27:57;4.20;;;2.85;;
9310;SDS011;4694;52.464;13.480;2022-07-29T06:30:25;7.47;;;3.17;;
9310;SDS011;4694;52.464;13.480;2022-07-29T06:32:53;8.40;;;2.75;;
9310;SDS011;4694;52.464;13.480;2022-07-29T06:35:20;5.40;;;2.85;;
9310;SDS011;4694;52.464;13.480;2022-07-29T06:37:47;5.50;;;2.83;;
9310;SDS011;4694;52.464;13.480;2022-07-29T06:40:14;7.00;;;3.33;;
9310;SDS011;4694;52.464;13.480;2022-07-29T06:42:59;7.60;;;2.28;;
9310;SDS011;4694;52.464;13.480;2022-07-29T06:45:27;4.65;;;2.28;;
9310;SDS011;4694;52.464;13.480;2022-07-29T06:47:54;4.07;;;2.33;;
9310;SDS011;4694;52.464;13.480;2022-07-29T06:50:21;2.95;;;1.77;;
9310;SDS011;4694;52.464;13.480;2022-07-29T06:52:47;10.27;;;3.38;;
9310;SDS011;4694;52.464;13.480;2022-07-29T06:55:14;7.93;;;2.10;;
9310;SDS011;4694;52.464;13.480;2022-07-29T06:57:41;7.65;;;2.10;;
9310;SDS011;4694;52.464;13.480;2022-07-29T07:00:08;4.35;;;1.85;;
9310;SDS011;4694;52.464;13.480;2022-07-29T07:02:37;9.32;;;2.70;;
9310;SDS011;4694;52.464;13.480;2022-07-29T07:05:04;6.40;;;2.55;;
9310;SDS011;4694;52.464;13.480;2022-07-29T07:07:31;5.30;;;1.85;;
9310;SDS011;4694;52.464;13.480;2022-07-29T07:09:58;3.33;;;2.05;;
9310;SDS011;4694;52.464;13.480;2022-07-29T07:12:25;7.78;;;2.40;;
9310;SDS011;4694;52.464;13.480;2022-07-29T07:14:51;3.50;;;2.00;;
9310;SDS011;4694;52.464;13.480;2022-07-29T07:17:18;6.35;;;2.08;;
9310;SDS011;4694;52.464;13.480;2022-07-29T07:19:46;4.57;;;2.10;;
9310;SDS011;4694;52.464;13.480;2022-07-29T07:22:13;9.48;;;3.42;;
9310;SDS011;4694;52.464;13.480;2022-07-29T07:24:39;7.10;;;5.22;;
9310;SDS011;4694;52.464;13.480;2022-07-29T07:27:06;3.97;;;1.83;;
9310;SDS011;4694;52.464;13.480;2022-07-29T07:29:32;7.32;;;2.63;;
9310;SDS011;4694;52.464;13.480;2022-07-29T07:31:59;7.50;;;2.58;;
9310;SDS011;4694;52.464;13.480;2022-07-29T07:34:26;4.05;;;2.00;;
9310;SDS011;4694;52.464;13.480;2022-07-29T07:36:54;4.40;;;1.95;;
9310;SDS011;4694;52.464;13.480;2022-07-29T07:39:20;4.57;;;1.98;;
9310;SDS011;4694;52.464;13.480;2022-07-29T07:41:47;5.25;;;1.95;;
9310;SDS011;4694;52.464;13.480;2022-07-29T07:44:14;5.97;;;2.25;;
9310;SDS011;4694;52.464;13.480;2022-07-29T07:46:40;4.75;;;1.90;;
9310;SDS011;4694;52.464;13.480;2022-07-29T07:49:07;4.00;;;1.92;;
9310;SDS011;4694;52.464;13.480;2022-07-29T07:51:34;2.30;;;1.52;;
9310;SDS011;4694;52.464;13.480;2022-07-29T07:54:02;5.43;;;2.22;;
9310;SDS011;4694;52.464;13.480;2022-07-29T07:56:28;4.50;;;2.05;;
9310;SDS011;4694;52.464;13.480;2022-07-29T07:58:55;7.85;;;1.90;;
9310;SDS011;4694;52.464;13.480;2022-07-29T08:01:21;4.35;;;1.55;;
9310;SDS011;4694;52.464;13.480;2022-07-29T08:03:49;2.40;;;1.73;;
9310;SDS011;4694;52.464;13.480;2022-07-29T08:06:15;1.63;;;1.52;;
9310;SDS011;4694;52.464;13.480;2022-07-29T08:08:42;4.28;;;1.42;;
9310;SDS011;4694;52.464;13.480;2022-07-29T08:11:10;4.93;;;1.58;;
9310;SDS011;4694;52.464;13.480;2022-07-29T08:13:37;4.68;;;1.40;;
9310;SDS011;4694;52.464;13.480;2022-07-29T08:16:04;1.48;;;1.35;;
9310;SDS011;4694;52.464;13.480;2022-07-29T08:18:37;2.08;;;1.33;;
9310;SDS011;4694;52.464;13.480;2022-07-29T08:21:05;3.13;;;1.38;;
9310;SDS011;4694;52.464;13.480;2022-07-29T08:23:32;4.13;;;1.13;;
9310;SDS011;4694;52.464;13.480;2022-07-29T08:26:03;4.20;;;0.93;;
9310;SDS011;4694;52.464;13.480;2022-07-29T08:28:31;2.60;;;1.40;;
9310;SDS011;4694;52.464;13.480;2022-07-29T08:30:58;3.70;;;2.15;;
9310;SDS011;4694;52.464;13.480;2022-07-29T08:33:25;6.43;;;1.70;;
9310;SDS011;4694;52.464;13.480;2022-07-29T08:35:51;3.15;;;1.58;;
9310;SDS011;4694;52.464;13.480;2022-07-29T08:38:18;4.53;;;1.52;;
9310;SDS011;4694;52.464;13.480;2022-07-29T08:40:44;2.80;;;1.65;;
9310;SDS011;4694;52.464;13.480;2022-07-29T08:43:11;4.07;;;1.42;;
9310;SDS011;4694;52.464;13.480;2022-07-29T08:45:42;3.90;;;1.38;;
9310;SDS011;4694;52.464;13.480;2022-07-29T08:48:11;5.60;;;1.73;;
9310;SDS011;4694;52.464;13.480;2022-07-29T08:50:38;4.00;;;1.83;;
9310;SDS011;4694;52.464;13.480;2022-07-29T08:53:06;4.50;;;1.50;;
9310;SDS011;4694;52.464;13.480;2022-07-29T08:55:34;3.50;;;1.40;;
9310;SDS011;4694;52.464;13.480;2022-07-29T08:58:01;1.92;;;1.30;;
9310;SDS011;4694;52.464;13.480;2022-07-29T09:00:28;5.40;;;1.70;;
9310;SDS011;4694;52.464;13.480;2022-07-29T09:02:57;2.63;;;1.42;;
9310;SDS011;4694;52.464;13.480;2022-07-29T09:05:25;5.73;;;2.57;;
9310;SDS011;4694;52.464;13.480;2022-07-29T09:07:52;4.38;;;1.75;;
9310;SDS011;4694;52.464;13.480;2022-07-29T09:10:19;1.70;;;1.30;;
9310;SDS011;4694;52.464;13.480;2022-07-29T09:12:46;2.83;;;1.63;;
9310;SDS011;4694;52.464;13.480;2022-07-29T09:15:13;1.98;;;1.35;;
9310;SDS011;4694;52.464;13.480;2022-07-29T09:17:40;6.18;;;1.25;;
9310;SDS011;4694;52.464;13.480;2022-07-29T09:20:10;3.67;;;1.33;;
9310;SDS011;4694;52.464;13.480;2022-07-29T09:22:38;3.10;;;1.27;;
9310;SDS011;4694;52.464;13.480;2022-07-29T09:25:06;2.50;;;1.08;;
9310;SDS011;4694;52.464;13.480;2022-07-29T09:27:33;4.00;;;1.73;;
9310;SDS011;4694;52.464;13.480;2022-07-29T09:30:01;3.05;;;1.02;;
9310;SDS011;4694;52.464;13.480;2022-07-29T09:32:30;2.85;;;1.30;;
9310;SDS011;4694;52.464;13.480;2022-07-29T09:35:18;4.97;;;1.30;;
9310;SDS011;4694;52.464;13.480;2022-07-29T09:37:46;4.45;;;1.63;;
9310;SDS011;4694;52.464;13.480;2022-07-29T09:40:14;5.63;;;1.95;;
9310;SDS011;4694;52.464;13.480;2022-07-29T09:42:42;2.38;;;1.35;;
9310;SDS011;4694;52.464;13.480;2022-07-29T09:45:10;2.65;;;1.10;;
9310;SDS011;4694;52.464;13.480;2022-07-29T09:47:41;3.30;;;1.40;;
9310;SDS011;4694;52.464;13.480;2022-07-29T09:50:11;2.25;;;1.50;;
9310;SDS011;4694;52.464;13.480;2022-07-29T09:52:45;1.70;;;1.17;;
9310;SDS011;4694;52.464;13.480;2022-07-29T09:55:13;2.58;;;1.33;;
9310;SDS011;4694;52.464;13.480;2022-07-29T09:57:40;5.57;;;1.30;;
9310;SDS011;4694;52.464;13.480;2022-07-29T10:00:08;2.83;;;1.17;;
9310;SDS011;4694;52.464;13.480;2022-07-29T10:02:38;2.15;;;0.95;;
9310;SDS011;4694;52.464;13.480;2022-07-29T10:05:09;3.33;;;1.10;;
9310;SDS011;4694;52.464;13.480;2022-07-29T10:07:45;3.22;;;1.35;;
9310;SDS011;4694;52.464;13.480;2022-07-29T10:10:18;3.47;;;0.90;;
9310;SDS011;4694;52.464;13.480;2022-07-29T10:12:51;1.10;;;0.75;;
9310;SDS011;4694;52.464;13.480;2022-07-29T10:15:20;4.40;;;1.08;;
9310;SDS011;4694;52.464;13.480;2022-07-29T10:17:48;3.42;;;1.00;;
9310;SDS011;4694;52.464;13.480;2022-07-29T10:20:15;3.00;;;0.75;;
9310;SDS011;4694;52.464;13.480;2022-07-29T10:22:44;4.45;;;0.90;;
9310;SDS011;4694;52.464;13.480;2022-07-29T10:25:12;1.55;;;1.20;;
9310;SDS011;4694;52.464;13.480;2022-07-29T10:27:39;4.35;;;1.20;;
9310;SDS011;4694;52.464;13.480;2022-07-29T10:30:07;4.75;;;1.00;;
9310;SDS011;4694;52.464;13.480;2022-07-29T10:32:49;3.42;;;0.90;;
9310;SDS011;4694;52.464;13.480;2022-07-29T10:35:27;3.47;;;1.13;;
9310;SDS011;4694;52.464;13.480;2022-07-29T10:38:20;3.13;;;1.00;;
9310;SDS011;4694;52.464;13.480;2022-07-29T10:41:02;2.60;;;1.15;;
9310;SDS011;4694;52.464;13.480;2022-07-29T10:43:55;4.18;;;1.05;;
9310;SDS011;4694;52.464;13.480;2022-07-29T10:46:23;5.40;;;1.25;;
9310;SDS011;4694;52.464;13.480;2022-07-29T10:49:06;2.72;;;0.90;;
9310;SDS011;4694;52.464;13.480;2022-07-29T10:51:54;4.68;;;1.92;;
9310;SDS011;4694;52.464;13.480;2022-07-29T10:57:21;2.85;;;1.30;;
9310;SDS011;4694;52.464;13.480;2022-07-29T11:02:57;3.38;;;1.42;;
9310;SDS011;4694;52.464;13.480;2022-07-29T11:05:25;3.35;;;1.23;;
9310;SDS011;4694;52.464;13.480;2022-07-29T11:10:50;4.03;;;1.70;;
9310;SDS011;4694;52.464;13.480;2022-07-29T11:13:44;3.20;;;1.15;;
9310;SDS011;4694;52.464;13.480;2022-07-29T11:16:12;2.15;;;1.00;;
9310;SDS011;4694;52.464;13.480;2022-07-29T11:21:40;2.58;;;1.17;;
9310;SDS011;4694;52.464;13.480;2022-07-29T11:24:11;4.78;;;1.23;;
9310;SDS011;4694;52.464;13.480;2022-07-29T11:26:39;1.63;;;1.23;;
9310;SDS011;4694;52.464;13.480;2022-07-29T11:29:13;3.58;;;1.02;;
9310;SDS011;4694;52.464;13.480;2022-07-29T11:31:45;4.65;;;1.48;;
9310;SDS011;4694;52.464;13.480;2022-07-29T11:34:17;1.58;;;1.42;;
9310;SDS011;4694;52.464;13.480;2022-07-29T11:40:09;3.08;;;1.20;;
9310;SDS011;4694;52.464;13.480;2022-07-29T11:42:44;1.77;;;1.33;;
9310;SDS011;4694;52.464;13.480;2022-07-29T11:45:15;2.50;;;1.63;;
9310;SDS011;4694;52.464;13.480;2022-07-29T11:47:47;3.50;;;1.63;;
9310;SDS011;4694;52.464;13.480;2022-07-29T11:50:16;2.35;;;1.58;;
9310;SDS011;4694;52.464;13.480;2022-07-29T11:52:52;2.20;;;1.10;;
9310;SDS011;4694;52.464;13.480;2022-07-29T11:55:20;2.55;;;1.48;;
9310;SDS011;4694;52.464;13.480;2022-07-29T11:57:49;3.97;;;2.47;;
9310;SDS011;4694;52.464;13.480;2022-07-29T12:00:21;1.35;;;1.25;;
9310;SDS011;4694;52.464;13.480;2022-07-29T12:02:49;2.65;;;1.83;;
9310;SDS011;4694;52.464;13.480;2022-07-29T12:05:16;3.53;;;2.08;;
9310;SDS011;4694;52.464;13.480;2022-07-29T12:07:43;2.58;;;1.42;;
9310;SDS011;4694;52.464;13.480;2022-07-29T12:10:10;2.35;;;2.15;;
9310;SDS011;4694;52.464;13.480;2022-07-29T12:12:37;3.45;;;2.20;;
9310;SDS011;4694;52.464;13.480;2022-07-29T12:15:13;2.50;;;2.30;;
9310;SDS011;4694;52.464;13.480;2022-07-29T12:17:42;4.28;;;2.30;;
9310;SDS011;4694;52.464;13.480;2022-07-29T12:20:09;2.10;;;1.90;;
9310;SDS011;4694;52.464;13.480;2022-07-29T12:22:39;4.82;;;1.50;;
9310;SDS011;4694;52.464;13.480;2022-07-29T12:25:09;5.20;;;1.58;;
9310;SDS011;4694;52.464;13.480;2022-07-29T12:27:39;4.47;;;1.60;;
9310;SDS011;4694;52.464;13.480;2022-07-29T12:30:07;1.60;;;1.45;;
9310;SDS011;4694;52.464;13.480;2022-07-29T12:32:37;2.30;;;1.98;;
9310;SDS011;4694;52.464;13.480;2022-07-29T12:35:05;3.15;;;1.70;;
9310;SDS011;4694;52.464;13.480;2022-07-29T12:37:34;3.58;;;1.75;;
9310;SDS011;4694;52.464;13.480;2022-07-29T12:40:03;3.13;;;2.10;;
9310;SDS011;4694;52.464;13.480;2022-07-29T12:42:31;2.58;;;1.30;;
9310;SDS011;4694;52.464;13.480;2022-07-29T12:44:58;3.80;;;1.63;;
9310;SDS011;4694;52.464;13.480;2022-07-29T12:47:24;3.53;;;1.80;;
9310;SDS011;4694;52.464;13.480;2022-07-29T12:50:06;2.42;;;2.10;;
9310;SDS011;4694;52.464;13.480;2022-07-29T12:52:34;2.45;;;2.15;;
9310;SDS011;4694;52.464;13.480;2022-07-29T12:55:02;4.45;;;2.00;;
9310;SDS011;4694;52.464;13.480;2022-07-29T12:57:30;4.22;;;2.17;;
9310;SDS011;4694;52.464;13.480;2022-07-29T13:00:00;1.77;;;1.67;;
9310;SDS011;4694;52.464;13.480;2022-07-29T13:02:32;3.60;;;1.80;;
9310;SDS011;4694;52.464;13.480;2022-07-29T13:05:01;4.65;;;2.00;;
9310;SDS011;4694;52.464;13.480;2022-07-29T13:07:29;3.97;;;1.77;;
9310;SDS011;4694;52.464;13.480;2022-07-29T13:10:09;1.90;;;1.80;;
9310;SDS011;4694;52.464;13.480;2022-07-29T13:12:37;4.72;;;1.95;;
9310;SDS011;4694;52.464;13.480;2022-07-29T13:15:11;3.00;;;2.58;;
9310;SDS011;4694;52.464;13.480;2022-07-29T13:17:39;3.38;;;2.13;;
9310;SDS011;4694;52.464;13.480;2022-07-29T13:20:10;1.98;;;1.80;;
9310;SDS011;4694;52.464;13.480;2022-07-29T13:22:39;3.35;;;2.10;;
9310;SDS011;4694;52.464;13.480;2022-07-29T13:25:07;3.00;;;2.15;;
9310;SDS011;4694;52.464;13.480;2022-07-29T13:27:37;3.88;;;2.50;;
9310;SDS011;4694;52.464;13.480;2022-07-29T13:30:05;3.17;;;2.28;;
9310;SDS011;4694;52.464;13.480;2022-07-29T13:32:33;2.83;;;2.20;;
9310;SDS011;4694;52.464;13.480;2022-07-29T13:35:02;3.17;;;2.20;;
9310;SDS011;4694;52.464;13.480;2022-07-29T13:37:32;2.53;;;2.22;;
9310;SDS011;4694;52.464;13.480;2022-07-29T13:40:00;3.05;;;2.30;;
9310;SDS011;4694;52.464;13.480;2022-07-29T13:42:28;2.60;;;2.20;;
9310;SDS011;4694;52.464;13.480;2022-07-29T13:44:54;2.80;;;1.95;;
9310;SDS011;4694;52.464;13.480;2022-07-29T13:47:21;1.90;;;1.80;;
9310;SDS011;4694;52.464;13.480;2022-07-29T13:49:48;3.95;;;2.10;;
9310;SDS011;4694;52.464;13.480;2022-07-29T13:52:15;2.80;;;2.15;;
9310;SDS011;4694;52.464;13.480;2022-07-29T13:54:43;3.40;;;2.17;;
9310;SDS011;4694;52.464;13.480;2022-07-29T13:57:10;2.53;;;2.13;;
9310;SDS011;4694;52.464;13.480;2022-07-29T13:59:38;2.55;;;2.35;;
9310;SDS011;4694;52.464;13.480;2022-07-29T14:02:05;5.00;;;1.98;;
9310;SDS011;4694;52.464;13.480;2022-07-29T14:04:32;2.47;;;2.00;;
9310;SDS011;4694;52.464;13.480;2022-07-29T14:06:59;3.05;;;2.30;;
9310;SDS011;4694;52.464;13.480;2022-07-29T14:09:26;6.10;;;2.13;;
9310;SDS011;4694;52.464;13.480;2022-07-29T14:11:55;4.85;;;2.33;;
9310;SDS011;4694;52.464;13.480;2022-07-29T14:14:22;2.90;;;1.73;;
9310;SDS011;4694;52.464;13.480;2022-07-29T14:16:49;1.92;;;1.73;;
9310;SDS011;4694;52.464;13.480;2022-07-29T14:19:16;2.95;;;1.85;;
9310;SDS011;4694;52.464;13.480;2022-07-29T14:21:43;5.05;;;2.13;;
9310;SDS011;4694;52.464;13.480;2022-07-29T14:24:10;4.82;;;2.42;;
9310;SDS011;4694;52.464;13.480;2022-07-29T14:26:37;2.22;;;2.03;;
9310;SDS011;4694;52.464;13.480;2022-07-29T14:29:05;5.28;;;1.67;;
9310;SDS011;4694;52.464;13.480;2022-07-29T14:31:32;2.90;;;1.83;;
9310;SDS011;4694;52.464;13.480;2022-07-29T14:33:59;2.50;;;2.03;;
9310;SDS011;4694;52.464;13.480;2022-07-29T14:36:26;1.98;;;1.85;;
9310;SDS011;4694;52.464;13.480;2022-07-29T14:38:53;3.92;;;2.13;;
9310;SDS011;4694;52.464;13.480;2022-07-29T14:41:20;4.18;;;1.80;;
9310;SDS011;4694;52.464;13.480;2022-07-29T14:43:47;2.63;;;2.17;;
9310;SDS011;4694;52.464;13.480;2022-07-29T14:46:16;3.22;;;2.30;;
9310;SDS011;4694;52.464;13.480;2022-07-29T14:48:43;2.13;;;1.83;;
9310;SDS011;4694;52.464;13.480;2022-07-29T14:51:10;2.53;;;2.33;;
9310;SDS011;4694;52.464;13.480;2022-07-29T14:53:37;3.72;;;2.42;;
9310;SDS011;4694;52.464;13.480;2022-07-29T14:56:04;3.83;;;2.00;;
9310;SDS011;4694;52.464;13.480;2022-07-29T14:58:31;3.25;;;2.13;;
9310;SDS011;4694;52.464;13.480;2022-07-29T15:00:58;4.55;;;2.10;;
9310;SDS011;4694;52.464;13.480;2022-07-29T15:03:27;3.97;;;2.00;;
9310;SDS011;4694;52.464;13.480;2022-07-29T15:05:54;1.80;;;1.70;;
9310;SDS011;4694;52.464;13.480;2022-07-29T15:08:21;1.92;;;1.60;;
9310;SDS011;4694;52.464;13.480;2022-07-29T15:10:48;3.95;;;2.25;;
9310;SDS011;4694;52.464;13.480;2022-07-29T15:13:15;5.40;;;2.22;;
9310;SDS011;4694;52.464;13.480;2022-07-29T15:15:42;4.63;;;1.80;;
9310;SDS011;4694;52.464;13.480;2022-07-29T15:18:09;3.38;;;1.90;;
9310;SDS011;4694;52.464;13.480;2022-07-29T15:20:37;5.90;;;2.28;;
9310;SDS011;4694;52.464;13.480;2022-07-29T15:23:04;3.80;;;1.75;;
9310;SDS011;4694;52.464;13.480;2022-07-29T15:25:34;5.03;;;2.25;;
9310;SDS011;4694;52.464;13.480;2022-07-29T15:28:02;3.10;;;2.25;;